Terminal Aerodrome Forecast
Issued by NWS Paducah, KY

Home | Current Version | Previous Version | Text Only | Print | Product List | Glossary On
Versions: 1 2 3 4 5 6 7 8 9 10 11 12 13
000
FTUS43 KPAH 251120
TAFPAH
TAF
KPAH 251120Z 2512/2612 VRB02KT P6SM FEW050 SCT200
     FM251700 20005KT P6SM VCTS FEW040CB SCT100
     FM252100 19004KT P6SM SCT100 BKN110 PROB30 2521/2524 4SM -TSRA
      BKN100CB=

USA.gov is the U.S. government's official web portal to all federal, state and local government web resources and services.